sensor_id;sensor_type;location;lat;lon;timestamp;P1;durP1;ratioP1;P2;durP2;ratioP2
79493;SDS011;68951;53.130;18.104;2023-07-29T18:36:36;5.30;;;1.50;;
79493;SDS011;68951;53.130;18.104;2023-07-29T18:39:03;5.00;;;1.20;;
79493;SDS011;68951;53.130;18.104;2023-07-29T18:41:32;5.90;;;1.50;;
79493;SDS011;68951;53.130;18.104;2023-07-29T18:43:59;5.50;;;1.40;;
79493;SDS011;68951;53.130;18.104;2023-07-29T18:46:26;3.90;;;1.20;;
79493;SDS011;68951;53.130;18.104;2023-07-29T18:48:54;4.30;;;1.00;;
79493;SDS011;68951;53.130;18.104;2023-07-29T18:51:22;4.90;;;1.40;;
79493;SDS011;68951;53.130;18.104;2023-07-29T18:53:48;5.80;;;1.80;;
79493;SDS011;68951;53.130;18.104;2023-07-29T18:56:15;5.30;;;1.70;;
79493;SDS011;68951;53.130;18.104;2023-07-29T18:58:42;4.70;;;1.70;;
79493;SDS011;68951;53.130;18.104;2023-07-29T19:01:09;4.20;;;1.40;;
79493;SDS011;68951;53.130;18.104;2023-07-29T19:03:37;4.50;;;1.20;;
79493;SDS011;68951;53.130;18.104;2023-07-29T19:06:04;4.60;;;1.50;;
79493;SDS011;68951;53.130;18.104;2023-07-29T19:08:31;5.30;;;1.60;;
79493;SDS011;68951;53.130;18.104;2023-07-29T19:10:58;5.20;;;1.50;;
79493;SDS011;68951;53.130;18.104;2023-07-29T19:13:25;3.70;;;1.30;;
79493;SDS011;68951;53.130;18.104;2023-07-29T19:15:53;4.10;;;1.40;;
79493;SDS011;68951;53.130;18.104;2023-07-29T19:18:25;5.70;;;1.50;;
79493;SDS011;68951;53.130;18.104;2023-07-29T19:20:52;5.00;;;1.10;;
79493;SDS011;68951;53.130;18.104;2023-07-29T19:23:20;4.80;;;1.50;;
79493;SDS011;68951;53.130;18.104;2023-07-29T19:25:48;4.80;;;1.60;;
79493;SDS011;68951;53.130;18.104;2023-07-29T19:28:16;4.50;;;1.30;;
79493;SDS011;68951;53.130;18.104;2023-07-29T19:30:44;4.50;;;1.60;;
79493;SDS011;68951;53.130;18.104;2023-07-29T19:33:11;4.60;;;1.50;;
79493;SDS011;68951;53.130;18.104;2023-07-29T19:35:38;4.20;;;1.30;;
79493;SDS011;68951;53.130;18.104;2023-07-29T19:38:05;6.30;;;1.40;;
79493;SDS011;68951;53.130;18.104;2023-07-29T19:40:33;5.80;;;1.50;;
79493;SDS011;68951;53.130;18.104;2023-07-29T19:43:03;5.10;;;1.60;;
79493;SDS011;68951;53.130;18.104;2023-07-29T19:45:30;6.20;;;1.40;;
79493;SDS011;68951;53.130;18.104;2023-07-29T19:47:57;4.40;;;1.20;;
79493;SDS011;68951;53.130;18.104;2023-07-29T19:50:24;4.70;;;1.80;;
79493;SDS011;68951;53.130;18.104;2023-07-29T19:52:51;7.60;;;1.90;;
79493;SDS011;68951;53.130;18.104;2023-07-29T19:55:17;4.50;;;1.40;;
79493;SDS011;68951;53.130;18.104;2023-07-29T19:57:44;5.10;;;1.70;;
79493;SDS011;68951;53.130;18.104;2023-07-29T20:00:11;4.60;;;1.40;;
79493;SDS011;68951;53.130;18.104;2023-07-29T20:02:40;4.70;;;1.50;;
79493;SDS011;68951;53.130;18.104;2023-07-29T20:05:07;5.00;;;1.70;;
79493;SDS011;68951;53.130;18.104;2023-07-29T20:07:35;4.10;;;1.90;;
79493;SDS011;68951;53.130;18.104;2023-07-29T20:10:02;4.40;;;1.70;;
79493;SDS011;68951;53.130;18.104;2023-07-29T20:12:29;4.70;;;2.20;;
79493;SDS011;68951;53.130;18.104;2023-07-29T20:17:47;4.50;;;1.70;;
79493;SDS011;68951;53.130;18.104;2023-07-29T20:20:13;4.40;;;1.90;;
79493;SDS011;68951;53.130;18.104;2023-07-29T20:22:40;5.90;;;1.80;;
79493;SDS011;68951;53.130;18.104;2023-07-29T20:25:07;4.80;;;1.80;;
79493;SDS011;68951;53.130;18.104;2023-07-29T20:27:34;6.70;;;2.00;;
79493;SDS011;68951;53.130;18.104;2023-07-29T20:30:02;4.50;;;1.60;;
79493;SDS011;68951;53.130;18.104;2023-07-29T20:32:29;5.90;;;2.20;;
79493;SDS011;68951;53.130;18.104;2023-07-29T20:34:56;4.60;;;1.70;;
79493;SDS011;68951;53.130;18.104;2023-07-29T20:37:23;6.30;;;1.90;;
79493;SDS011;68951;53.130;18.104;2023-07-29T20:39:50;5.50;;;1.70;;
79493;SDS011;68951;53.130;18.104;2023-07-29T20:42:17;5.50;;;2.60;;
79493;SDS011;68951;53.130;18.104;2023-07-29T20:44:44;5.60;;;2.00;;
79493;SDS011;68951;53.130;18.104;2023-07-29T20:47:10;5.90;;;2.10;;
79493;SDS011;68951;53.130;18.104;2023-07-29T20:49:37;4.70;;;1.70;;
79493;SDS011;68951;53.130;18.104;2023-07-29T20:52:04;4.90;;;1.60;;
79493;SDS011;68951;53.130;18.104;2023-07-29T20:54:32;3.90;;;1.60;;
79493;SDS011;68951;53.130;18.104;2023-07-29T20:56:59;4.80;;;1.80;;
79493;SDS011;68951;53.130;18.104;2023-07-29T20:59:26;4.80;;;1.70;;
79493;SDS011;68951;53.130;18.104;2023-07-29T21:01:52;5.70;;;2.20;;
79493;SDS011;68951;53.130;18.104;2023-07-29T21:04:19;4.90;;;1.60;;
79493;SDS011;68951;53.130;18.104;2023-07-29T21:06:47;5.40;;;2.80;;
79493;SDS011;68951;53.130;18.104;2023-07-29T21:09:13;5.40;;;2.60;;
79493;SDS011;68951;53.130;18.104;2023-07-29T21:11:40;6.20;;;2.80;;
79493;SDS011;68951;53.130;18.104;2023-07-29T21:14:07;6.00;;;2.40;;
79493;SDS011;68951;53.130;18.104;2023-07-29T21:16:34;6.10;;;3.40;;
79493;SDS011;68951;53.130;18.104;2023-07-29T21:19:01;5.10;;;2.40;;
79493;SDS011;68951;53.130;18.104;2023-07-29T21:21:28;6.50;;;3.60;;
79493;SDS011;68951;53.130;18.104;2023-07-29T21:23:54;6.80;;;3.10;;
79493;SDS011;68951;53.130;18.104;2023-07-29T21:26:22;5.80;;;3.10;;
79493;SDS011;68951;53.130;18.104;2023-07-29T21:28:49;7.10;;;3.30;;
79493;SDS011;68951;53.130;18.104;2023-07-29T21:31:15;5.80;;;2.60;;
79493;SDS011;68951;53.130;18.104;2023-07-29T21:33:42;6.50;;;3.30;;
79493;SDS011;68951;53.130;18.104;2023-07-29T21:36:09;6.80;;;2.70;;
79493;SDS011;68951;53.130;18.104;2023-07-29T21:38:36;6.60;;;2.80;;
79493;SDS011;68951;53.130;18.104;2023-07-29T21:41:02;5.60;;;3.00;;
79493;SDS011;68951;53.130;18.104;2023-07-29T21:43:29;6.20;;;3.10;;
79493;SDS011;68951;53.130;18.104;2023-07-29T21:45:56;6.00;;;2.90;;
79493;SDS011;68951;53.130;18.104;2023-07-29T21:48:23;5.50;;;2.70;;
79493;SDS011;68951;53.130;18.104;2023-07-29T21:50:53;5.80;;;2.60;;
79493;SDS011;68951;53.130;18.104;2023-07-29T21:53:21;5.30;;;2.20;;
79493;SDS011;68951;53.130;18.104;2023-07-29T21:55:48;5.10;;;2.90;;
79493;SDS011;68951;53.130;18.104;2023-07-29T21:58:14;6.00;;;3.10;;
79493;SDS011;68951;53.130;18.104;2023-07-29T22:00:41;5.30;;;2.90;;
79493;SDS011;68951;53.130;18.104;2023-07-29T22:03:08;5.30;;;3.00;;
79493;SDS011;68951;53.130;18.104;2023-07-29T22:05:35;6.90;;;2.90;;
79493;SDS011;68951;53.130;18.104;2023-07-29T22:08:02;4.10;;;1.80;;
79493;SDS011;68951;53.130;18.104;2023-07-29T22:10:29;5.60;;;2.80;;
79493;SDS011;68951;53.130;18.104;2023-07-29T22:12:56;4.50;;;2.10;;
79493;SDS011;68951;53.130;18.104;2023-07-29T22:15:23;4.80;;;2.70;;
79493;SDS011;68951;53.130;18.104;2023-07-29T22:17:49;4.20;;;1.70;;
79493;SDS011;68951;53.130;18.104;2023-07-29T22:20:16;5.00;;;2.30;;
79493;SDS011;68951;53.130;18.104;2023-07-29T22:22:43;6.20;;;2.60;;
79493;SDS011;68951;53.130;18.104;2023-07-29T22:25:10;5.10;;;2.60;;
79493;SDS011;68951;53.130;18.104;2023-07-29T22:27:36;7.20;;;2.20;;
79493;SDS011;68951;53.130;18.104;2023-07-29T22:30:04;4.80;;;2.50;;
79493;SDS011;68951;53.130;18.104;2023-07-29T22:32:31;4.50;;;1.80;;
79493;SDS011;68951;53.130;18.104;2023-07-29T22:34:58;5.60;;;3.10;;
79493;SDS011;68951;53.130;18.104;2023-07-29T22:37:25;3.70;;;1.20;;
79493;SDS011;68951;53.130;18.104;2023-07-29T22:39:51;4.50;;;2.30;;
79493;SDS011;68951;53.130;18.104;2023-07-29T22:42:18;4.40;;;2.00;;
79493;SDS011;68951;53.130;18.104;2023-07-29T22:44:45;5.50;;;2.70;;
79493;SDS011;68951;53.130;18.104;2023-07-29T22:47:12;5.50;;;2.60;;
79493;SDS011;68951;53.130;18.104;2023-07-29T22:49:39;6.40;;;3.10;;
79493;SDS011;68951;53.130;18.104;2023-07-29T22:52:06;7.20;;;3.10;;
79493;SDS011;68951;53.130;18.104;2023-07-29T22:54:33;4.40;;;1.80;;
79493;SDS011;68951;53.130;18.104;2023-07-29T22:56:59;6.00;;;2.50;;
79493;SDS011;68951;53.130;18.104;2023-07-29T22:59:26;5.40;;;2.70;;
79493;SDS011;68951;53.130;18.104;2023-07-29T23:01:53;5.10;;;2.80;;
79493;SDS011;68951;53.130;18.104;2023-07-29T23:04:20;5.40;;;2.50;;
79493;SDS011;68951;53.130;18.104;2023-07-29T23:06:47;5.90;;;2.70;;
79493;SDS011;68951;53.130;18.104;2023-07-29T23:09:13;6.70;;;2.80;;
79493;SDS011;68951;53.130;18.104;2023-07-29T23:11:40;7.00;;;3.20;;
79493;SDS011;68951;53.130;18.104;2023-07-29T23:14:07;4.40;;;2.00;;
79493;SDS011;68951;53.130;18.104;2023-07-29T23:16:34;7.10;;;3.10;;
79493;SDS011;68951;53.130;18.104;2023-07-29T23:19:01;8.00;;;3.10;;
79493;SDS011;68951;53.130;18.104;2023-07-29T23:21:27;9.10;;;3.10;;
79493;SDS011;68951;53.130;18.104;2023-07-29T23:23:54;14.40;;;4.20;;
79493;SDS011;68951;53.130;18.104;2023-07-29T23:26:21;17.50;;;4.00;;
79493;SDS011;68951;53.130;18.104;2023-07-29T23:28:47;26.30;;;5.50;;
79493;SDS011;68951;53.130;18.104;2023-07-29T23:31:14;31.40;;;6.50;;
79493;SDS011;68951;53.130;18.104;2023-07-29T23:33:41;15.70;;;4.50;;
79493;SDS011;68951;53.130;18.104;2023-07-29T23:36:08;12.40;;;3.60;;
79493;SDS011;68951;53.130;18.104;2023-07-29T23:38:34;11.00;;;3.50;;
79493;SDS011;68951;53.130;18.104;2023-07-29T23:41:01;8.70;;;3.10;;
79493;SDS011;68951;53.130;18.104;2023-07-29T23:43:28;11.30;;;3.50;;
79493;SDS011;68951;53.130;18.104;2023-07-29T23:45:55;9.30;;;4.10;;
79493;SDS011;68951;53.130;18.104;2023-07-29T23:48:22;8.30;;;3.00;;
79493;SDS011;68951;53.130;18.104;2023-07-29T23:50:48;4.80;;;2.30;;
79493;SDS011;68951;53.130;18.104;2023-07-29T23:53:15;4.80;;;2.20;;
79493;SDS011;68951;53.130;18.104;2023-07-29T23:55:42;6.80;;;3.10;;
79493;SDS011;68951;53.130;18.104;2023-07-29T23:58:08;5.40;;;3.00;;
